createdAt,value
2023-02-02T00:01:35.364Z,4.65
2023-02-02T00:04:02.090Z,4.59
2023-02-02T00:06:30.289Z,4.57
2023-02-02T00:09:01.771Z,4.57
2023-02-02T00:11:28.587Z,4.58
2023-02-02T00:13:55.156Z,4.67
2023-02-02T00:16:27.524Z,4.69
2023-02-02T00:19:02.402Z,4.67
2023-02-02T00:21:29.185Z,4.62
2023-02-02T00:23:56.152Z,4.58
2023-02-02T00:26:22.834Z,4.55
2023-02-02T00:28:49.437Z,4.62
2023-02-02T00:31:16.145Z,4.67
2023-02-02T00:33:49.701Z,4.59
2023-02-02T00:36:17.584Z,4.66
2023-02-02T00:38:44.219Z,4.60
2023-02-02T00:41:11.812Z,4.63
2023-02-02T00:43:38.340Z,4.65
2023-02-02T00:46:05.778Z,4.66
2023-02-02T00:48:32.512Z,4.57
2023-02-02T00:51:04.145Z,4.59
2023-02-02T00:53:33.508Z,4.59
2023-02-02T00:56:02.998Z,4.60
2023-02-02T00:58:29.485Z,4.65
2023-02-02T01:00:56.775Z,4.66
2023-02-02T01:03:23.347Z,4.70
2023-02-02T01:05:52.999Z,4.77
2023-02-02T01:08:22.000Z,4.70
2023-02-02T01:10:48.561Z,4.75
2023-02-02T01:13:15.157Z,4.79
2023-02-02T01:15:41.714Z,4.80
2023-02-02T01:18:08.237Z,4.81
2023-02-02T01:20:34.965Z,4.83
2023-02-02T01:23:01.545Z,4.87
2023-02-02T01:25:28.140Z,4.77
2023-02-02T01:27:54.711Z,4.83
2023-02-02T01:30:25.795Z,4.78
2023-02-02T01:32:52.282Z,4.84
2023-02-02T01:35:21.920Z,4.93
2023-02-02T01:37:52.730Z,4.94
2023-02-02T01:40:19.489Z,4.94
2023-02-02T01:42:47.160Z,4.93
2023-02-02T01:45:20.248Z,4.92
2023-02-02T01:47:52.242Z,4.88
2023-02-02T01:50:21.765Z,4.90
2023-02-02T01:52:51.713Z,4.83
2023-02-02T01:55:24.643Z,4.81
2023-02-02T01:58:11.569Z,4.84
2023-02-02T02:00:41.299Z,4.79
2023-02-02T02:03:12.560Z,4.81
2023-02-02T02:05:44.564Z,4.79
2023-02-02T02:08:22.074Z,4.77
2023-02-02T02:10:51.486Z,4.74
2023-02-02T02:13:20.768Z,4.77
2023-02-02T02:16:18.763Z,4.73
2023-02-02T02:18:47.933Z,4.68
2023-02-02T02:22:24.178Z,4.68
2023-02-02T02:25:24.698Z,4.68
2023-02-02T02:28:26.760Z,4.73
2023-02-02T02:31:09.575Z,4.76
2023-02-02T02:33:47.093Z,4.73
2023-02-02T02:36:49.177Z,4.76
2023-02-02T02:39:36.475Z,4.79
2023-02-02T02:42:28.594Z,4.84
2023-02-02T02:44:58.456Z,4.84
2023-02-02T02:47:25.892Z,4.72
2023-02-02T02:49:52.499Z,4.76
2023-02-02T02:52:19.045Z,4.79
2023-02-02T02:54:53.219Z,4.77
2023-02-02T02:57:49.171Z,4.71
2023-02-02T03:00:24.541Z,4.76
2023-02-02T03:03:14.310Z,4.73
2023-02-02T03:06:02.240Z,4.70
2023-02-02T03:08:50.524Z,4.75
2023-02-02T03:11:18.000Z,4.75
2023-02-02T03:13:44.725Z,4.78
2023-02-02T03:16:11.948Z,4.74
2023-02-02T03:18:39.353Z,4.76
2023-02-02T03:21:06.033Z,4.75
2023-02-02T03:23:32.564Z,4.73
2023-02-02T03:25:59.820Z,4.73
2023-02-02T03:28:28.213Z,4.75
2023-02-02T03:30:55.863Z,4.79
2023-02-02T03:33:25.178Z,4.78
2023-02-02T03:35:51.761Z,4.74
2023-02-02T03:38:18.420Z,4.81
2023-02-02T03:40:44.924Z,4.81
2023-02-02T03:43:13.774Z,4.81
2023-02-02T03:45:40.866Z,4.85
2023-02-02T03:48:09.954Z,4.92
2023-02-02T03:50:37.449Z,4.93
2023-02-02T03:53:05.023Z,4.91
2023-02-02T03:55:37.084Z,4.94
2023-02-02T03:58:03.620Z,4.97
2023-02-02T04:00:30.145Z,5.01
2023-02-02T04:02:56.855Z,4.96
2023-02-02T04:05:24.854Z,4.94
2023-02-02T04:07:51.601Z,4.95
2023-02-02T04:10:18.764Z,4.96
2023-02-02T04:12:45.245Z,4.89
2023-02-02T04:15:12.797Z,4.81
2023-02-02T04:17:39.344Z,4.80
2023-02-02T04:20:06.348Z,4.79
2023-02-02T04:22:33.553Z,4.76
2023-02-02T04:25:00.133Z,4.76
2023-02-02T04:27:28.941Z,4.74
2023-02-02T04:29:58.506Z,4.70
2023-02-02T04:32:25.147Z,4.69
2023-02-02T04:34:54.443Z,4.69
2023-02-02T04:37:20.920Z,4.72
2023-02-02T04:39:48.634Z,4.74
2023-02-02T04:42:15.143Z,4.74
2023-02-02T04:44:41.701Z,4.57
2023-02-02T04:47:08.246Z,4.58
2023-02-02T04:49:36.837Z,4.62
2023-02-02T04:52:05.620Z,4.58
2023-02-02T04:54:33.040Z,4.50
2023-02-02T04:57:04.116Z,4.44
2023-02-02T04:59:33.805Z,4.43
2023-02-02T05:02:01.565Z,4.41
2023-02-02T05:04:30.205Z,4.42
2023-02-02T05:06:56.749Z,4.45
2023-02-02T05:09:26.002Z,4.59
2023-02-02T05:11:55.224Z,4.58
2023-02-02T05:14:21.836Z,4.56
2023-02-02T05:16:50.068Z,4.56
2023-02-02T05:19:17.063Z,4.49
2023-02-02T05:21:44.932Z,4.53
2023-02-02T05:24:12.645Z,4.69
2023-02-02T05:26:39.284Z,4.75
2023-02-02T05:29:06.790Z,4.71
2023-02-02T05:31:33.640Z,4.72
2023-02-02T05:34:00.560Z,4.70
2023-02-02T05:36:27.920Z,4.62
2023-02-02T05:38:54.450Z,4.73
2023-02-02T05:41:20.950Z,4.75
2023-02-02T05:43:50.590Z,4.79
2023-02-02T05:46:17.130Z,4.76
2023-02-02T05:48:43.696Z,4.72
2023-02-02T05:51:15.035Z,4.70
2023-02-02T05:53:41.684Z,4.79
2023-02-02T05:56:08.241Z,4.72
2023-02-02T05:58:34.844Z,4.71
2023-02-02T06:01:01.353Z,4.71
2023-02-02T06:03:30.707Z,4.65
2023-02-02T06:05:57.282Z,4.70
2023-02-02T06:08:23.906Z,4.70
2023-02-02T06:10:50.454Z,4.79
2023-02-02T06:13:17.098Z,4.72
2023-02-02T06:15:43.783Z,4.61
2023-02-02T06:18:10.496Z,4.69
2023-02-02T06:20:37.426Z,4.73
2023-02-02T06:23:04.681Z,4.70
2023-02-02T06:25:31.346Z,4.68
2023-02-02T06:27:59.426Z,4.71
2023-02-02T06:30:27.113Z,4.76
2023-02-02T06:32:53.855Z,4.75
2023-02-02T06:35:20.583Z,4.73
2023-02-02T06:37:47.164Z,4.78
2023-02-02T06:40:13.847Z,4.68
2023-02-02T06:42:40.957Z,4.71
2023-02-02T06:45:08.026Z,4.71
2023-02-02T06:47:34.567Z,4.71
2023-02-02T06:50:01.124Z,4.65
2023-02-02T06:52:27.749Z,4.65
2023-02-02T06:54:54.310Z,4.69
2023-02-02T06:57:20.925Z,4.66
2023-02-02T06:59:47.687Z,4.73
2023-02-02T07:02:14.417Z,4.79
2023-02-02T07:04:43.887Z,4.71
2023-02-02T07:07:13.591Z,4.75
2023-02-02T07:09:40.389Z,4.79
2023-02-02T07:12:06.972Z,4.78
2023-02-02T07:14:33.516Z,4.64
2023-02-02T07:16:59.988Z,4.73
2023-02-02T07:19:26.643Z,4.68
2023-02-02T07:21:55.556Z,4.77
2023-02-02T07:24:22.105Z,4.79
2023-02-02T07:26:48.742Z,4.88
2023-02-02T07:29:15.331Z,4.82
2023-02-02T07:31:42.117Z,4.87
2023-02-02T07:34:08.745Z,4.88
2023-02-02T07:36:35.453Z,4.90
2023-02-02T07:39:04.887Z,4.92
2023-02-02T07:41:33.405Z,4.92
2023-02-02T07:43:59.960Z,4.92
2023-02-02T07:46:26.510Z,4.94
2023-02-02T07:48:57.515Z,5.00
2023-02-02T07:51:25.451Z,5.07
2023-02-02T07:53:53.741Z,5.05
2023-02-02T07:56:23.517Z,5.12
2023-02-02T07:58:53.013Z,5.08
2023-02-02T08:01:22.850Z,5.12
2023-02-02T08:03:50.636Z,5.17
2023-02-02T08:06:25.059Z,5.15
2023-02-02T08:08:53.236Z,5.15
2023-02-02T08:11:22.109Z,5.21
2023-02-02T08:13:50.597Z,5.24
2023-02-02T08:16:17.676Z,5.20
2023-02-02T08:18:44.268Z,5.28
2023-02-02T08:21:11.667Z,5.40
2023-02-02T08:23:40.266Z,5.39
2023-02-02T08:26:11.261Z,5.49
2023-02-02T08:28:39.151Z,5.54
2023-02-02T08:31:27.213Z,5.47
2023-02-02T08:33:54.985Z,5.47
2023-02-02T08:36:23.436Z,5.55
2023-02-02T08:38:50.616Z,5.68
2023-02-02T08:41:20.319Z,5.69
2023-02-02T08:43:47.269Z,5.77
2023-02-02T08:46:16.083Z,5.83
2023-02-02T08:48:43.196Z,5.80
2023-02-02T08:51:15.218Z,5.84
2023-02-02T08:53:42.669Z,5.72
2023-02-02T08:56:18.479Z,5.77
2023-02-02T08:58:58.785Z,5.75
2023-02-02T09:01:30.402Z,5.75
2023-02-02T09:04:08.217Z,5.72
2023-02-02T09:06:39.547Z,5.81
2023-02-02T09:09:10.282Z,5.74
2023-02-02T09:11:37.862Z,5.78
2023-02-02T09:14:06.586Z,5.78
2023-02-02T09:16:35.009Z,5.71
2023-02-02T09:19:01.709Z,5.66
2023-02-02T09:21:28.324Z,5.68
2023-02-02T09:23:54.878Z,5.60
2023-02-02T09:26:24.167Z,5.64
2023-02-02T09:28:54.447Z,5.69
2023-02-02T09:31:21.874Z,5.68
2023-02-02T09:33:48.895Z,5.74
2023-02-02T09:36:18.247Z,5.78
2023-02-02T09:38:44.953Z,5.74
2023-02-02T09:41:11.625Z,5.77
2023-02-02T09:44:19.829Z,5.76
2023-02-02T09:47:20.071Z,5.80
2023-02-02T09:49:55.683Z,5.90
2023-02-02T09:52:28.629Z,5.90
2023-02-02T09:55:00.870Z,5.93
2023-02-02T09:57:36.912Z,5.96
2023-02-02T10:00:16.191Z,5.98
2023-02-02T10:02:46.111Z,6.03
2023-02-02T10:05:22.253Z,5.99
2023-02-02T10:07:53.761Z,6.00
2023-02-02T10:10:33.488Z,5.97
2023-02-02T10:13:09.390Z,5.94
2023-02-02T10:15:51.259Z,5.93
2023-02-02T10:18:46.824Z,5.99
2023-02-02T10:21:25.965Z,6.01
2023-02-02T10:23:54.669Z,6.07
2023-02-02T10:26:51.939Z,6.07
2023-02-02T10:29:48.110Z,6.07
2023-02-02T10:32:23.804Z,6.00
2023-02-02T10:35:13.073Z,6.06
2023-02-02T10:38:11.282Z,6.04
2023-02-02T10:40:43.930Z,5.99
2023-02-02T10:43:47.365Z,6.00
2023-02-02T10:46:31.992Z,5.96
2023-02-02T10:49:21.953Z,5.94
2023-02-02T10:51:55.729Z,5.98
2023-02-02T10:55:10.035Z,5.98
2023-02-02T10:57:54.710Z,6.05
2023-02-02T11:00:26.556Z,6.00
2023-02-02T11:02:53.860Z,6.04
2023-02-02T11:05:44.982Z,6.05
2023-02-02T11:08:14.590Z,6.05
2023-02-02T11:10:42.637Z,6.03
2023-02-02T11:13:16.079Z,6.01
2023-02-02T11:15:42.850Z,6.08
2023-02-02T11:18:27.115Z,6.08
2023-02-02T11:20:54.011Z,6.12
2023-02-02T11:23:21.355Z,6.12
2023-02-02T11:25:59.013Z,6.08
2023-02-02T11:28:30.310Z,6.06
2023-02-02T11:30:57.777Z,6.07
2023-02-02T11:33:34.875Z,6.12
2023-02-02T11:36:18.042Z,6.10
2023-02-02T11:38:44.600Z,6.10
2023-02-02T11:41:13.833Z,6.15
2023-02-02T11:43:47.780Z,6.17
2023-02-02T11:46:25.886Z,6.11
2023-02-02T11:49:08.536Z,6.15
2023-02-02T11:51:35.232Z,6.11
2023-02-02T11:54:23.319Z,6.20
2023-02-02T11:56:54.109Z,6.19
2023-02-02T11:59:35.080Z,6.17
2023-02-02T12:02:19.640Z,6.25
2023-02-02T12:04:48.162Z,6.24
2023-02-02T12:07:27.803Z,6.27
2023-02-02T12:09:59.507Z,6.34
2023-02-02T12:12:33.681Z,6.35
2023-02-02T12:15:19.945Z,6.38
2023-02-02T12:17:48.494Z,6.41
2023-02-02T12:20:34.862Z,6.40
2023-02-02T12:23:25.359Z,6.41
2023-02-02T12:26:08.907Z,6.42
2023-02-02T12:28:53.865Z,6.39
2023-02-02T12:31:38.253Z,6.39
2023-02-02T12:34:15.847Z,6.44
2023-02-02T12:36:51.425Z,6.42
2023-02-02T12:39:23.640Z,6.38
2023-02-02T12:41:58.888Z,6.41
2023-02-02T12:44:50.970Z,6.46
2023-02-02T12:47:30.226Z,6.49
2023-02-02T12:50:14.989Z,6.46
2023-02-02T12:52:59.103Z,6.48
2023-02-02T12:55:34.625Z,6.52
2023-02-02T12:58:12.624Z,6.50
2023-02-02T13:01:16.686Z,6.56
2023-02-02T13:07:27.171Z,6.56
2023-02-02T13:10:15.221Z,6.53
2023-02-02T13:12:48.140Z,6.48
2023-02-02T13:15:23.894Z,6.43
2023-02-02T13:17:59.416Z,6.42
2023-02-02T13:20:43.889Z,6.48
2023-02-02T13:23:34.027Z,6.48
2023-02-02T13:26:06.829Z,6.46
2023-02-02T13:28:43.316Z,6.50
2023-02-02T13:31:29.248Z,6.46
2023-02-02T13:34:21.713Z,6.49
2023-02-02T13:37:04.402Z,6.41
2023-02-02T13:39:38.447Z,6.48
2023-02-02T13:42:16.924Z,6.43
2023-02-02T13:44:49.781Z,6.41
2023-02-02T13:47:34.544Z,6.34
2023-02-02T13:50:07.371Z,6.28
2023-02-02T13:52:48.799Z,6.23
2023-02-02T13:56:01.949Z,6.21
2023-02-02T13:58:55.310Z,6.19
2023-02-02T14:01:23.830Z,6.21
2023-02-02T14:03:55.925Z,6.26
2023-02-02T14:06:27.785Z,6.29
2023-02-02T14:08:57.516Z,6.33
2023-02-02T14:11:35.708Z,6.22
2023-02-02T14:14:33.429Z,6.24
2023-02-02T14:17:06.955Z,6.07
2023-02-02T14:19:33.428Z,5.90
2023-02-02T14:22:18.781Z,5.81
2023-02-02T14:24:50.024Z,5.79
2023-02-02T14:27:16.585Z,5.79
2023-02-02T14:29:46.934Z,5.80
2023-02-02T14:32:29.121Z,5.87
2023-02-02T14:35:08.950Z,5.82
2023-02-02T14:37:53.681Z,5.78
2023-02-02T14:40:26.489Z,5.75
2023-02-02T14:43:36.900Z,5.74
2023-02-02T14:46:15.456Z,5.76
2023-02-02T14:49:07.024Z,5.79
2023-02-02T14:51:46.043Z,5.75
2023-02-02T14:54:22.012Z,5.76
2023-02-02T14:56:52.998Z,5.79
2023-02-02T14:59:28.083Z,5.79
2023-02-02T15:02:30.446Z,5.71
2023-02-02T15:05:34.112Z,5.71
2023-02-02T15:08:24.549Z,5.61
2023-02-02T15:10:54.082Z,5.61
2023-02-02T15:13:37.672Z,5.55
2023-02-02T15:16:14.498Z,5.51
2023-02-02T15:18:45.551Z,5.50
2023-02-02T15:21:17.335Z,5.53
2023-02-02T15:23:46.422Z,5.52
2023-02-02T15:26:24.974Z,5.40
2023-02-02T15:28:54.478Z,5.42
2023-02-02T15:31:29.562Z,5.47
2023-02-02T15:34:01.130Z,5.39
2023-02-02T15:36:32.686Z,5.38
2023-02-02T15:39:04.658Z,5.33
2023-02-02T15:41:42.568Z,5.33
2023-02-02T15:44:20.091Z,5.31
2023-02-02T15:46:47.209Z,5.26
2023-02-02T15:49:36.020Z,5.22
2023-02-02T15:52:21.608Z,5.22
2023-02-02T15:54:51.764Z,5.21
2023-02-02T15:57:35.196Z,5.22
2023-02-02T16:00:30.301Z,5.17
2023-02-02T16:03:18.850Z,5.14
2023-02-02T16:05:49.734Z,5.18
2023-02-02T16:08:42.674Z,5.13
2023-02-02T16:11:17.776Z,5.07
2023-02-02T16:13:53.631Z,5.07
2023-02-02T16:16:26.580Z,5.07
2023-02-02T16:19:03.504Z,5.05
2023-02-02T16:21:30.905Z,5.04
2023-02-02T16:23:58.408Z,5.02
2023-02-02T16:26:29.025Z,5.00
2023-02-02T16:28:56.397Z,4.96
2023-02-02T16:31:23.158Z,5.02
2023-02-02T16:33:49.889Z,5.04
2023-02-02T16:36:24.506Z,5.05
2023-02-02T16:38:52.822Z,5.05
2023-02-02T16:41:29.995Z,5.05
2023-02-02T16:43:56.596Z,5.02
2023-02-02T16:46:44.229Z,5.00
2023-02-02T16:49:24.589Z,4.98
2023-02-02T16:52:13.528Z,5.02
2023-02-02T16:54:51.603Z,5.01
2023-02-02T16:57:31.176Z,5.01
2023-02-02T17:00:02.509Z,5.03
2023-02-02T17:02:32.007Z,5.05
2023-02-02T17:05:19.149Z,5.07
2023-02-02T17:07:58.470Z,5.09
2023-02-02T17:10:37.465Z,5.03
2023-02-02T17:13:33.467Z,5.06
2023-02-02T17:16:00.658Z,5.05
2023-02-02T17:18:28.506Z,5.04
2023-02-02T17:20:57.870Z,5.06
2023-02-02T17:23:27.281Z,5.06
2023-02-02T17:25:54.776Z,5.06
2023-02-02T17:28:23.955Z,5.09
2023-02-02T17:31:04.219Z,5.09
2023-02-02T17:33:34.336Z,5.13
2023-02-02T17:36:01.061Z,5.07
2023-02-02T17:38:28.300Z,5.08
2023-02-02T17:41:00.858Z,5.10
2023-02-02T17:43:28.147Z,5.22
2023-02-02T17:45:54.709Z,5.27
2023-02-02T17:48:21.312Z,5.26
2023-02-02T17:50:48.079Z,5.35
2023-02-02T17:53:16.930Z,5.33
2023-02-02T17:55:45.084Z,5.26
2023-02-02T17:58:15.023Z,5.27
2023-02-02T18:00:42.277Z,5.27
2023-02-02T18:03:11.848Z,5.34
2023-02-02T18:05:38.694Z,5.37
2023-02-02T18:08:06.346Z,5.37
2023-02-02T18:10:33.545Z,5.41
2023-02-02T18:13:00.033Z,5.42
2023-02-02T18:15:26.830Z,5.40
2023-02-02T18:17:53.515Z,5.42
2023-02-02T18:20:20.599Z,5.43
2023-02-02T18:22:49.740Z,5.44
2023-02-02T18:25:16.315Z,5.41
2023-02-02T18:27:44.805Z,5.33
2023-02-02T18:30:12.018Z,5.30
2023-02-02T18:32:40.209Z,5.33
2023-02-02T18:35:08.384Z,5.34
2023-02-02T18:37:35.888Z,5.34
2023-02-02T18:40:03.083Z,5.35
2023-02-02T18:42:32.197Z,5.25
2023-02-02T18:44:59.925Z,5.29
2023-02-02T18:47:27.524Z,5.26
2023-02-02T18:49:54.531Z,5.23
2023-02-02T18:52:21.054Z,5.25
2023-02-02T18:54:48.147Z,5.32
2023-02-02T18:57:15.549Z,5.21
2023-02-02T18:59:43.144Z,5.18
2023-02-02T19:02:14.716Z,5.14
2023-02-02T19:05:01.784Z,5.16
2023-02-02T19:07:46.909Z,5.08
2023-02-02T19:10:13.585Z,5.04
2023-02-02T19:12:40.220Z,5.06
2023-02-02T19:15:12.459Z,5.02
2023-02-02T19:17:39.887Z,5.00
2023-02-02T19:20:24.062Z,4.99
2023-02-02T19:23:00.381Z,5.02
2023-02-02T19:25:27.284Z,4.96
2023-02-02T19:27:54.114Z,4.98
2023-02-02T19:30:22.947Z,4.96
2023-02-02T19:32:49.794Z,4.93
2023-02-02T19:35:26.874Z,4.88
2023-02-02T19:38:02.417Z,4.86
2023-02-02T19:40:29.211Z,4.89
2023-02-02T19:43:03.818Z,4.93
2023-02-02T19:45:33.294Z,4.94
2023-02-02T19:48:15.241Z,4.95
2023-02-02T19:50:41.913Z,4.90
2023-02-02T19:53:14.168Z,4.92
2023-02-02T19:55:41.643Z,4.90
2023-02-02T19:58:28.693Z,4.94
2023-02-02T20:00:57.941Z,4.90
2023-02-02T20:03:28.791Z,4.88
2023-02-02T20:05:57.076Z,4.92
2023-02-02T20:08:55.993Z,4.94
2023-02-02T20:11:39.530Z,4.91
2023-02-02T20:14:30.142Z,4.86
2023-02-02T20:17:11.977Z,4.92
2023-02-02T20:19:44.270Z,4.88
2023-02-02T20:22:25.477Z,4.85
2023-02-02T20:24:52.221Z,4.84
2023-02-02T20:27:25.257Z,4.83
2023-02-02T20:29:54.081Z,4.83
2023-02-02T20:32:49.328Z,4.82
2023-02-02T20:35:41.733Z,4.70
2023-02-02T20:38:31.993Z,4.65
2023-02-02T20:40:59.216Z,4.52
2023-02-02T20:43:25.748Z,4.53
2023-02-02T20:45:52.327Z,4.43
2023-02-02T20:48:18.986Z,4.44
2023-02-02T20:50:46.916Z,4.36
2023-02-02T20:53:16.437Z,4.27
2023-02-02T20:55:44.651Z,4.17
2023-02-02T20:58:11.659Z,4.13
2023-02-02T21:00:39.039Z,4.07
2023-02-02T21:03:05.563Z,3.92
2023-02-02T21:05:32.265Z,3.80
2023-02-02T21:07:58.760Z,3.69
2023-02-02T21:10:26.565Z,3.68
2023-02-02T21:12:53.328Z,3.56
2023-02-02T21:15:19.829Z,3.49
2023-02-02T21:17:46.464Z,3.47
2023-02-02T21:20:14.866Z,3.45
2023-02-02T21:22:41.800Z,3.38
2023-02-02T21:25:09.567Z,3.36
2023-02-02T21:27:41.080Z,3.24
2023-02-02T21:30:12.154Z,3.21
2023-02-02T21:32:38.750Z,3.21
2023-02-02T21:35:06.612Z,3.15
2023-02-02T21:37:36.410Z,3.08
2023-02-02T21:40:12.824Z,3.10
2023-02-02T21:42:39.351Z,3.04
2023-02-02T21:45:21.071Z,3.02
2023-02-02T21:47:50.699Z,2.97
2023-02-02T21:50:20.327Z,2.98
2023-02-02T21:52:47.215Z,2.88
2023-02-02T21:55:33.687Z,2.87
2023-02-02T21:58:11.500Z,2.81
2023-02-02T22:00:38.001Z,2.79
2023-02-02T22:03:21.571Z,2.74
2023-02-02T22:05:48.070Z,2.78
2023-02-02T22:08:22.843Z,2.80
2023-02-02T22:10:49.678Z,2.79
2023-02-02T22:13:19.602Z,2.72
2023-02-02T22:15:48.126Z,2.74
2023-02-02T22:18:18.738Z,2.77
2023-02-02T22:20:47.491Z,2.78
2023-02-02T22:23:16.631Z,2.74
2023-02-02T22:25:44.491Z,2.73
2023-02-02T22:28:19.386Z,2.63
2023-02-02T22:30:45.999Z,2.57
2023-02-02T22:33:13.664Z,2.63
2023-02-02T22:35:41.461Z,2.60
2023-02-02T22:38:08.799Z,2.59
2023-02-02T22:40:35.750Z,2.62
2023-02-02T22:43:05.756Z,2.58
2023-02-02T22:45:32.832Z,2.47
2023-02-02T22:47:59.524Z,2.53
2023-02-02T22:50:28.880Z,2.49
2023-02-02T22:52:55.735Z,2.50
2023-02-02T22:55:22.541Z,2.47
2023-02-02T22:57:49.016Z,2.40
2023-02-02T23:00:34.969Z,2.46
2023-02-02T23:03:01.676Z,2.43
2023-02-02T23:05:28.582Z,2.41
2023-02-02T23:07:55.753Z,2.37
2023-02-02T23:10:26.034Z,2.36
2023-02-02T23:12:54.993Z,2.32
2023-02-02T23:15:22.533Z,2.23
2023-02-02T23:17:49.426Z,2.22
2023-02-02T23:20:17.110Z,2.24
2023-02-02T23:22:43.661Z,2.26
2023-02-02T23:25:11.437Z,2.27
2023-02-02T23:27:38.621Z,2.26
2023-02-02T23:30:07.437Z,2.30
2023-02-02T23:32:34.562Z,2.26
2023-02-02T23:35:01.229Z,2.22
2023-02-02T23:37:27.711Z,2.21
2023-02-02T23:39:54.193Z,2.18
2023-02-02T23:42:20.709Z,2.17
2023-02-02T23:44:47.171Z,2.20
2023-02-02T23:47:13.695Z,2.16
2023-02-02T23:49:40.506Z,2.14
2023-02-02T23:52:07.403Z,2.15
2023-02-02T23:54:34.148Z,2.10
2023-02-02T23:57:01.494Z,2.11
2023-02-02T23:59:28.019Z,2.11
